EGXP

RAF Scampton Airport

Scampton, United Kingdom
METAR EGXP 201650Z AUTO 24007KT 9999 // FEW045/// 12/09 Q1028
Observed Flight Rules
Oct-20 @ 16:50 UTC (an hour ago) Visual Flight Rules
Wind Visibility Clouds
240° at 7 knots 10,000+ meters
  • Few at 4,500' AGL
Temperatures Readings
Current 12°C / 54°F
Dewpoint 9°C / 48°F
Humidity 82%
Altimeter 30.35" Hg
Pressure 1028 hPa
Elevation 61
METAR EGXP 201650Z AUTO 24007KT 9999 // FEW045/// 12/09 Q1028
Observed Flight Rules
Oct-20 @ 16:50 UTC
(an hour ago)
VFR
Wind Visibility
240° at 7 knots 10,000+ meters
Clouds
  • Few at 4,500' AGL
Temperature Dewpoint
12°C / 54°F 9°C / 48°F
Humidity Altimeter Pressure
82% 30.35" Hg 1028 hPa